www.nordhorn-wetter.com
Wetterdaten: aktuell Samstag, 09.05.2026 21:03
Datum Zeit Temp. A. BodenT -5cm Temp +10cm Extra Temp Feuchte A. BlattFeuchte Bod.Feu -5cm Luftdruck Regen Wind Richtung Richtung Sonnenschein ET UV Solar Taupunkt Windböen Empfang
09.05.2026 21:03 16,6 °C 17,8 °C 15,0 °C 16,2 °C 60 % 0 lf 8 cb 1015,2 hPa 0,0 mm 0,0 km/h (0 Bft) W-SW 255 ° 18 min 0,026 mm 0,0 UV-I 8 W/m² 8,8 °C 0,0 km/h (0 Bft) 100,00 %
09.05.2026 20:03 17,7 °C 18,3 °C 16,7 °C 16,2 °C 56 % 0 lf 8 cb 1015,2 hPa 0,0 mm 4,2 km/h (1 Bft) SW 236 ° 2 min 0,076 mm 0,0 UV-I 41 W/m² 8,8 °C 6,4 km/h (2 Bft) 100,00 %
09.05.2026 19:04 18,1 °C 18,3 °C 17,2 °C 16,2 °C 53 % 0 lf 8 cb 1015,0 hPa 0,0 mm 2,5 km/h (1 Bft) S-SW 207 ° 10 min 0,127 mm 0,5 UV-I 108 W/m² 8,4 °C 4,8 km/h (1 Bft) 100,00 %
09.05.2026 18:05 18,9 °C 18,9 °C 17,8 °C 16,2 °C 51 % 0 lf 7 cb 1015,0 hPa 0,0 mm 1,0 km/h (0 Bft) O-SO 107 ° 29 min 0,203 mm 1,4 UV-I 462 W/m² 8,5 °C 1,6 km/h (1 Bft) 95,83 %
09.05.2026 17:06 18,4 °C 18,9 °C 17,8 °C 16,2 °C 54 % 0 lf 7 cb 1015,7 hPa 0,0 mm 3,2 km/h (1 Bft) O-SO 110 ° 6 min 0,178 mm 2,2 UV-I 231 W/m² 8,9 °C 4,8 km/h (1 Bft) 96,00 %
09.05.2026 16:07 19,7 °C 17,8 °C 15,6 °C 15,1 °C 53 % 0 lf 16 cb 1016,1 hPa 0,0 mm 11,1 km/h (2 Bft) SW 223 ° 49 min 0,457 mm 2,6 UV-I 229 W/m² 9,8 °C 17,7 km/h (3 Bft) 100,00 %
09.05.2026 15:07 18,1 °C 16,7 °C 23,3 °C 14,6 °C 54 % 0 lf 17 cb 1016,8 hPa 0,0 mm 0,6 km/h (0 Bft) S-SW 213 ° 34 min 0,356 mm 5,5 UV-I 904 W/m² 8,6 °C 9,7 km/h (2 Bft) 95,74 %
09.05.2026 14:07 17,5 °C 15,6 °C 20,6 °C 13,4 °C 58 % 0 lf 18 cb 1017,4 hPa 0,0 mm 3,6 km/h (1 Bft) S-SO 153 ° 32 min 0,355 mm 2,8 UV-I 232 W/m² 9,1 °C 4,8 km/h (1 Bft) 95,65 %
09.05.2026 13:07 17,1 °C 14,4 °C 21,1 °C 12,9 °C 61 % 0 lf 18 cb 1017,9 hPa 0,0 mm 3,7 km/h (1 Bft) O-SO 117 ° 18 min 0,305 mm 2,7 UV-I 195 W/m² 9,5 °C 4,8 km/h (1 Bft) 88,89 %
09.05.2026 12:08 16,1 °C 13,3 °C 18,3 °C 11,8 °C 67 % 0 lf 18 cb 1018,3 hPa 0,0 mm 5,1 km/h (1 Bft) O 80 ° 16 min 0,229 mm 3,2 UV-I 325 W/m² 10,0 °C 9,7 km/h (2 Bft) 100,00 %
09.05.2026 11:09 15,3 °C 12,8 °C 17,8 °C 11,8 °C 71 % 0 lf 19 cb 1018,5 hPa 0,0 mm 6,4 km/h (2 Bft) O-NO 74 ° 54 min 0,355 mm 4,2 UV-I 866 W/m² 10,1 °C 9,7 km/h (2 Bft) 95,83 %
09.05.2026 10:10 13,4 °C 12,2 °C 14,4 °C 10,7 °C 77 % 0 lf 19 cb 1018,8 hPa 0,0 mm 3,1 km/h (1 Bft) O 100 ° 44 min 0,204 mm 2,7 UV-I 642 W/m² 9,5 °C 9,7 km/h (2 Bft) 100,00 %
09.05.2026 09:11 11,9 °C 11,7 °C 11,7 °C 10,7 °C 83 % 0 lf 19 cb 1019,0 hPa 0,0 mm 4,6 km/h (1 Bft) O 96 ° 22 min 0,101 mm 1,6 UV-I 348 W/m² 9,1 °C 9,7 km/h (2 Bft) 100,00 %
09.05.2026 08:12 9,6 °C 11,7 °C 9,4 °C 10,7 °C 89 % 0 lf 18 cb 1019,0 hPa 0,0 mm 6,9 km/h (2 Bft) O-NO 74 ° 7 min 0,051 mm 0,6 UV-I 130 W/m² 7,9 °C 9,7 km/h (2 Bft) 95,65 %
09.05.2026 07:13 7,7 °C 11,7 °C 7,2 °C 10,7 °C 92 % 3 lf 18 cb 1018,7 hPa 0,0 mm 2,1 km/h (1 Bft) O 100 ° 0 min 0,000 mm 0,0 UV-I 58 W/m² 6,5 °C 3,2 km/h (1 Bft) 95,65 %
09.05.2026 06:14 6,3 °C 11,7 °C 5,6 °C 11,2 °C 93 % 13 lf 18 cb 1018,6 hPa 0,0 mm 0,0 km/h (0 Bft) O 92 ° 0 min 0,000 mm 0,0 UV-I 14 W/m² 5,3 °C 0,0 km/h (0 Bft) 95,65 %
09.05.2026 05:15 6,7 °C 12,2 °C 5,6 °C 11,2 °C 92 % 4 lf 17 cb 1018,8 hPa 0,0 mm 0,0 km/h (0 Bft) O 92 ° 0 min 0,000 mm 0,0 UV-I 0 W/m² 5,5 °C 0,0 km/h (0 Bft) 86,96 %
09.05.2026 04:16 7,5 °C 12,2 °C 6,7 °C 11,8 °C 91 % 0 lf 17 cb 1019,0 hPa 0,0 mm 3,7 km/h (1 Bft) O 94 ° 0 min 0,000 mm 0,0 UV-I 0 W/m² 6,1 °C 4,8 km/h (1 Bft) 96,00 %
09.05.2026 03:17 7,6 °C 12,8 °C 7,2 °C 11,8 °C 90 % 0 lf 16 cb 1019,2 hPa 0,0 mm 0,0 km/h (0 Bft) O 91 ° 0 min 0,000 mm 0,0 UV-I 0 W/m² 6,1 °C 0,0 km/h (0 Bft) 95,65 %
09.05.2026 02:18 8,2 °C 12,8 °C 7,8 °C 12,3 °C 88 % 0 lf 16 cb 1019,0 hPa 0,0 mm 4,4 km/h (1 Bft) O 98 ° 0 min 0,000 mm 0,0 UV-I 0 W/m² 6,3 °C 6,4 km/h (2 Bft) 95,83 %
09.05.2026 01:19 8,7 °C 13,3 °C 7,8 °C 12,3 °C 87 % 0 lf 16 cb 1019,2 hPa 0,0 mm 0,0 km/h (0 Bft) O-SO 103 ° 0 min 0,000 mm 0,0 UV-I 0 W/m² 6,7 °C 0,0 km/h (0 Bft) 100,00 %
09.05.2026 00:20 9,4 °C 13,9 °C 8,9 °C 12,9 °C 83 % 0 lf 15 cb 1019,1 hPa 0,0 mm 0,0 km/h (0 Bft) O-SO 103 ° 0 min 0,000 mm 0,0 UV-I 0 W/m² 6,7 °C 0,0 km/h (0 Bft) 100,00 %
09.05.2026 00:00 9,9 °C 13,9 °C 9,4 °C 12,9 °C 81 % 0 lf 15 cb 1019,1 hPa 0,0 mm 0,0 km/h (0 Bft) O-SO 103 ° 0 min 0,000 mm 0,0 UV-I 0 W/m² 6,8 °C 0,0 km/h (0 Bft) 95,65 %
_ Min-Zeit 05:51 10:08 05:56 10:10 15:16 21:03 18:57 18:44 - 21:03 - - - - - - 05:51 21:03 10:47
Minimum _ 6,2 °C 11,7 °C 5,0 °C 10,7 °C 50 % 0 lf 7 cb 1014,9 hPa - 0,0 km/h (0 Bft) - - - - - - 5,2 °C 0,0 km/h (0 Bft) 81,82 %
_ Max-Zeit 16:04 18:30 15:33 21:03 06:42 06:59 11:41 03:24 21:03 11:16 - - 15:22 16:02 13:42 12:29 15:19 14:32 21:03
Maximum _ 20,1 °C 18,9 °C 26,7 °C 16,2 °C 94 % 13 lf 19 cb 1019,2 hPa 0,0 mm 14,5 km/h
O (3 Bft)
- - 2 min 0,457 mm 5,8 UV-I 1020 W/m² 11,0 °C 20,9 km/h
S-SO (4 Bft)
100,00 %
Durchschnitt _ 13,2 °C 14,4 °C 13,4 °C 13,0 °C 73 % 1 lf 15 cb 1017,7 hPa #0,0 mm 3,2 km/h (1 Bft) O - #5:37 h #3,023 mm 2,5 UV-I 338 W/m² 8,1 °C 5,6 km/h (2 Bft) 96,34 %
© 2006-2026 Nordhorn-Wetter.com